createdAt,value
2018-09-02T00:01:06.021Z,101795.94
2018-09-02T00:03:35.752Z,101793.13
2018-09-02T00:06:05.213Z,101799.06
2018-09-02T00:08:34.594Z,101798.89
2018-09-02T00:11:04.425Z,101794.44
2018-09-02T00:13:33.861Z,101795.38
2018-09-02T00:16:03.252Z,101795.80
2018-09-02T00:18:33.052Z,101792.93
2018-09-02T00:21:02.806Z,101801.50
2018-09-02T00:23:32.219Z,101794.52
2018-09-02T00:26:02.046Z,101786.31
2018-09-02T00:28:31.833Z,101777.38
2018-09-02T00:31:01.556Z,101788.22
2018-09-02T00:33:30.985Z,101795.48
2018-09-02T00:36:00.422Z,101787.94
2018-09-02T00:38:30.221Z,101782.67
2018-09-02T00:40:59.606Z,101793.45
2018-09-02T00:43:29.430Z,101785.31
2018-09-02T00:45:58.856Z,101783.07
2018-09-02T00:48:28.643Z,101790.34
2018-09-02T00:50:58.427Z,101794.22
2018-09-02T00:53:28.240Z,101789.72
2018-09-02T00:55:57.640Z,101790.13
2018-09-02T00:58:27.389Z,101792.83
2018-09-02T01:00:57.125Z,101789.28
2018-09-02T01:03:26.876Z,101784.06
2018-09-02T01:05:56.300Z,101783.05
2018-09-02T01:08:26.233Z,101780.41
2018-09-02T01:10:55.620Z,101787.47
2018-09-02T01:13:25.064Z,101783.94
2018-09-02T01:15:54.760Z,101779.93
2018-09-02T01:18:24.213Z,101778.73
2018-09-02T01:20:53.602Z,101786.73
2018-09-02T01:23:23.052Z,101772.59
2018-09-02T01:25:52.521Z,101774.00
2018-09-02T01:28:22.266Z,101776.83
2018-09-02T01:30:52.000Z,101775.09
2018-09-02T01:33:21.396Z,101774.11
2018-09-02T01:35:51.131Z,101775.98
2018-09-02T01:38:20.540Z,101768.40
2018-09-02T01:40:50.304Z,101767.47
2018-09-02T01:43:20.058Z,101766.56
2018-09-02T01:45:49.772Z,101774.51
2018-09-02T01:48:19.554Z,101767.05
2018-09-02T01:50:48.915Z,101768.78
2018-09-02T01:53:18.331Z,101767.36
2018-09-02T01:55:47.752Z,101768.41
2018-09-02T01:58:17.176Z,101765.97
2018-09-02T02:00:46.920Z,101764.23
2018-09-02T02:03:16.665Z,101767.78
2018-09-02T02:05:46.469Z,101762.88
2018-09-02T02:08:15.928Z,101765.94
2018-09-02T02:10:45.715Z,101762.42
2018-09-02T02:13:15.137Z,101764.97
2018-09-02T02:15:44.581Z,101769.34
2018-09-02T02:18:14.319Z,101765.34
2018-09-02T02:20:44.487Z,101761.36
2018-09-02T02:23:14.275Z,101762.61
2018-09-02T02:25:43.754Z,101754.55
2018-09-02T02:28:13.147Z,101753.13
2018-09-02T02:30:42.982Z,101744.99
2018-09-02T02:33:12.669Z,101743.36
2018-09-02T02:35:42.117Z,101742.17
2018-09-02T02:38:11.896Z,101742.66
2018-09-02T02:40:41.729Z,101736.11
2018-09-02T02:43:11.087Z,101743.30
2018-09-02T02:45:40.554Z,101746.97
2018-09-02T02:48:09.967Z,101750.30
2018-09-02T02:50:39.794Z,101745.53
2018-09-02T02:53:09.571Z,101753.96
2018-09-02T02:55:39.357Z,101746.35
2018-09-02T02:58:09.195Z,101747.27
2018-09-02T03:00:38.637Z,101746.41
2018-09-02T03:03:08.046Z,101745.66
2018-09-02T03:05:38.013Z,101741.72
2018-09-02T03:08:07.889Z,101743.02
2018-09-02T03:10:37.418Z,101735.66
2018-09-02T03:13:07.257Z,101733.47
2018-09-02T03:15:37.124Z,101735.40
2018-09-02T03:18:06.953Z,101745.37
2018-09-02T03:20:36.740Z,101740.09
2018-09-02T03:23:07.563Z,101733.14
2018-09-02T03:25:37.043Z,101731.95
2018-09-02T03:28:06.553Z,101734.75
2018-09-02T03:30:36.345Z,101739.70
2018-09-02T03:33:06.249Z,101743.72
2018-09-02T03:35:35.675Z,101738.31
2018-09-02T03:38:05.159Z,101739.56
2018-09-02T03:40:34.561Z,101732.28
2018-09-02T03:43:04.455Z,101739.67
2018-09-02T03:45:33.866Z,101743.34
2018-09-02T03:48:03.851Z,101739.27
2018-09-02T03:50:33.275Z,101738.97
2018-09-02T03:53:03.164Z,101742.55
2018-09-02T03:55:32.618Z,101735.67
2018-09-02T03:58:02.614Z,101730.32
2018-09-02T04:00:31.985Z,101735.22
2018-09-02T04:03:01.968Z,101721.47
2018-09-02T04:05:31.709Z,101719.23
2018-09-02T04:08:01.238Z,101722.45
2018-09-02T04:10:30.660Z,101725.78
2018-09-02T04:13:00.158Z,101724.52
2018-09-02T04:15:29.605Z,101720.11
2018-09-02T04:17:59.414Z,101727.57
2018-09-02T04:20:33.223Z,101721.23
2018-09-02T04:23:03.231Z,101715.69
2018-09-02T04:25:33.795Z,101710.38
2018-09-02T04:28:03.247Z,101711.21
2018-09-02T04:30:32.646Z,101707.50
2018-09-02T04:33:02.152Z,101705.48
2018-09-02T04:35:31.601Z,101703.53
2018-09-02T04:38:01.459Z,101698.59
2018-09-02T04:40:31.062Z,101690.17
2018-09-02T04:43:00.538Z,101689.80
2018-09-02T04:45:30.331Z,101687.48
2018-09-02T04:48:00.241Z,101691.53
2018-09-02T04:50:30.025Z,101690.25
2018-09-02T04:52:59.430Z,101679.94
2018-09-02T04:55:28.903Z,101689.88
2018-09-02T04:58:01.607Z,101689.00
2018-09-02T05:00:31.075Z,101698.79
2018-09-02T05:03:00.434Z,101692.52
2018-09-02T05:05:30.175Z,101694.52
2018-09-02T05:08:00.048Z,101697.29
2018-09-02T05:10:29.446Z,101691.84
2018-09-02T05:12:59.215Z,101694.00
2018-09-02T05:15:29.074Z,101688.11
2018-09-02T05:17:58.559Z,101687.80
2018-09-02T05:20:27.991Z,101686.86
2018-09-02T05:22:57.798Z,101679.38
2018-09-02T05:25:27.176Z,101687.45
2018-09-02T05:27:56.661Z,101684.28
2018-09-02T05:30:26.638Z,101683.23
2018-09-02T05:32:56.114Z,101690.58
2018-09-02T05:35:25.558Z,101680.67
2018-09-02T05:37:55.499Z,101681.89
2018-09-02T05:40:25.293Z,101676.30
2018-09-02T05:42:55.051Z,101682.38
2018-09-02T05:45:25.015Z,101672.48
2018-09-02T05:47:58.474Z,101678.03
2018-09-02T05:50:27.840Z,101675.83
2018-09-02T05:52:57.559Z,101679.66
2018-09-02T05:55:26.982Z,101684.17
2018-09-02T05:57:56.669Z,101688.95
2018-09-02T06:00:26.102Z,101693.38
2018-09-02T06:02:56.074Z,101691.85
2018-09-02T06:05:26.018Z,101698.63
2018-09-02T06:07:57.387Z,101702.20
2018-09-02T06:10:27.202Z,101696.88
2018-09-02T06:12:56.941Z,101693.95
2018-09-02T06:15:26.324Z,101689.24
2018-09-02T06:17:55.731Z,101688.98
2018-09-02T06:20:25.122Z,101694.77
2018-09-02T06:22:54.842Z,101680.44
2018-09-02T06:25:24.602Z,101681.91
2018-09-02T06:27:54.072Z,101667.28
2018-09-02T06:30:23.610Z,101680.20
2018-09-02T06:32:53.501Z,101672.75
2018-09-02T06:35:23.119Z,101668.61
2018-09-02T06:37:53.170Z,101666.86
2018-09-02T06:40:22.644Z,101671.25
2018-09-02T06:42:52.056Z,101673.81
2018-09-02T06:45:21.570Z,101663.66
2018-09-02T06:47:51.113Z,101669.73
2018-09-02T06:50:20.842Z,101672.65
2018-09-02T06:52:50.318Z,101671.30
2018-09-02T06:55:19.705Z,101671.20
2018-09-02T06:57:49.321Z,101674.66
2018-09-02T07:00:19.069Z,101674.75
2018-09-02T07:02:48.669Z,101664.20
2018-09-02T07:05:18.372Z,101664.56
2018-09-02T07:07:47.825Z,101655.22
2018-09-02T07:10:17.628Z,101652.06
2018-09-02T07:12:47.082Z,101654.39
2018-09-02T07:15:16.485Z,101657.24
2018-09-02T07:17:46.279Z,101664.46
2018-09-02T07:20:16.135Z,101652.97
2018-09-02T07:22:45.533Z,101660.79
2018-09-02T07:25:14.930Z,101661.43
2018-09-02T07:27:44.766Z,101665.55
2018-09-02T07:30:14.398Z,101663.73
2018-09-02T07:32:44.268Z,101670.44
2018-09-02T07:35:14.135Z,101664.03
2018-09-02T07:37:43.611Z,101669.94
2018-09-02T07:40:13.444Z,101669.12
2018-09-02T07:42:43.345Z,101666.66
2018-09-02T07:45:13.471Z,101657.99
2018-09-02T07:47:43.011Z,101659.92
2018-09-02T07:50:12.922Z,101658.88
2018-09-02T07:52:42.305Z,101659.47
2018-09-02T07:55:11.793Z,101657.53
2018-09-02T07:57:41.197Z,101657.86
2018-09-02T08:00:11.365Z,101650.76
2018-09-02T08:02:41.481Z,101651.31
2018-09-02T08:05:11.432Z,101649.45
2018-09-02T08:07:41.237Z,101644.78
2018-09-02T08:10:10.969Z,101645.36
2018-09-02T08:12:40.524Z,101645.23
2018-09-02T08:15:10.239Z,101647.34
2018-09-02T08:17:40.015Z,101657.21
2018-09-02T08:20:09.861Z,101654.88
2018-09-02T08:22:39.358Z,101654.23
2018-09-02T08:25:09.792Z,101651.29
2018-09-02T08:27:39.698Z,101661.27
2018-09-02T08:30:09.102Z,101654.02
2018-09-02T08:32:38.959Z,101644.78
2018-09-02T08:35:08.765Z,101648.44
2018-09-02T08:37:38.129Z,101649.52
2018-09-02T08:40:08.294Z,101646.39
2018-09-02T08:42:38.053Z,101648.99
2018-09-02T08:45:08.589Z,101652.90
2018-09-02T08:47:38.000Z,101662.21
2018-09-02T08:50:07.585Z,101663.73
2018-09-02T08:52:37.334Z,101663.23
2018-09-02T08:55:06.812Z,101667.51
2018-09-02T08:57:36.629Z,101655.87
2018-09-02T09:00:06.857Z,101663.24
2018-09-02T09:02:36.351Z,101663.95
2018-09-02T09:05:06.769Z,101664.36
2018-09-02T09:07:36.375Z,101661.42
2018-09-02T09:10:06.593Z,101655.66
2018-09-02T09:12:36.424Z,101659.22
2018-09-02T09:15:06.605Z,101666.05
2018-09-02T09:17:36.026Z,101657.22
2018-09-02T09:20:06.010Z,101656.16
2018-09-02T09:22:36.324Z,101655.44
2018-09-02T09:25:07.003Z,101657.71
2018-09-02T09:27:36.788Z,101655.03
2018-09-02T09:30:07.477Z,101646.39
2018-09-02T09:32:37.345Z,101649.36
2018-09-02T09:35:07.324Z,101653.53
2018-09-02T09:37:37.349Z,101653.11
2018-09-02T09:40:07.209Z,101652.76
2018-09-02T09:42:37.185Z,101653.11
2018-09-02T09:45:07.189Z,101652.23
2018-09-02T09:47:36.601Z,101644.64
2018-09-02T09:50:07.257Z,101645.78
2018-09-02T09:52:37.104Z,101649.60
2018-09-02T09:55:07.109Z,101643.61
2018-09-02T09:57:37.225Z,101643.63
2018-09-02T10:00:07.543Z,101648.33
2018-09-02T10:02:37.144Z,101645.25
2018-09-02T10:05:06.984Z,101647.87
2018-09-02T10:07:36.568Z,101638.66
2018-09-02T10:10:06.545Z,101634.34
2018-09-02T10:12:36.316Z,101634.30
2018-09-02T10:15:05.846Z,101632.04
2018-09-02T10:17:35.568Z,101622.44
2018-09-02T10:20:05.128Z,101627.11
2018-09-02T10:22:34.624Z,101627.83
2018-09-02T10:25:04.473Z,101624.31
2018-09-02T10:27:33.921Z,101623.80
2018-09-02T10:30:03.396Z,101619.64
2018-09-02T10:32:32.948Z,101613.27
2018-09-02T10:35:02.969Z,101604.86
2018-09-02T10:37:32.414Z,101614.13
2018-09-02T10:40:02.512Z,101603.92
2018-09-02T10:42:32.392Z,101604.23
2018-09-02T10:45:02.453Z,101600.17
2018-09-02T10:47:34.133Z,101595.35
2018-09-02T10:50:04.152Z,101594.27
2018-09-02T10:52:34.789Z,101597.17
2018-09-02T10:55:04.740Z,101590.34
2018-09-02T10:57:36.282Z,101594.59
2018-09-02T11:00:06.882Z,101589.97
2018-09-02T11:02:36.683Z,101596.59
2018-09-02T11:05:07.164Z,101601.38
2018-09-02T11:07:37.183Z,101600.82
2018-09-02T11:10:07.035Z,101602.09
2018-09-02T11:12:36.819Z,101604.57
2018-09-02T11:15:07.283Z,101603.30
2018-09-02T11:17:36.875Z,101602.53
2018-09-02T11:20:07.305Z,101600.30
2018-09-02T11:22:36.842Z,101595.25
2018-09-02T11:25:06.947Z,101594.62
2018-09-02T11:27:36.685Z,101586.58
2018-09-02T11:30:06.564Z,101579.53
2018-09-02T11:32:36.337Z,101580.16
2018-09-02T11:35:06.235Z,101580.27
2018-09-02T11:37:35.672Z,101573.91
2018-09-02T11:40:05.479Z,101572.89
2018-09-02T11:42:34.929Z,101571.14
2018-09-02T11:45:04.472Z,101564.76
2018-09-02T11:47:34.481Z,101565.38
2018-09-02T11:50:05.175Z,101574.75
2018-09-02T11:52:34.909Z,101568.80
2018-09-02T11:55:04.436Z,101566.66
2018-09-02T11:57:33.940Z,101572.44
2018-09-02T12:00:03.928Z,101568.76
2018-09-02T12:02:33.441Z,101560.94
2018-09-02T12:05:03.539Z,101561.48
2018-09-02T12:07:32.955Z,101554.63
2018-09-02T12:10:02.434Z,101561.09
2018-09-02T12:12:31.835Z,101554.66
2018-09-02T12:15:01.356Z,101557.73
2018-09-02T12:17:31.423Z,101549.10
2018-09-02T12:20:00.824Z,101547.42
2018-09-02T12:22:31.122Z,101551.92
2018-09-02T12:25:00.732Z,101544.77
2018-09-02T12:27:30.289Z,101546.52
2018-09-02T12:30:00.174Z,101542.77
2018-09-02T12:32:30.679Z,101539.05
2018-09-02T12:35:00.451Z,101530.80
2018-09-02T12:37:33.597Z,101525.19
2018-09-02T12:40:03.242Z,101530.47
2018-09-02T12:42:33.116Z,101523.72
2018-09-02T12:45:04.342Z,101523.67
2018-09-02T12:47:34.174Z,101506.16
2018-09-02T12:50:03.770Z,101513.56
2018-09-02T12:52:33.745Z,101502.84
2018-09-02T12:55:04.797Z,101505.33
2018-09-02T12:57:40.090Z,101501.24
2018-09-02T13:00:15.938Z,101495.66
2018-09-02T13:02:47.088Z,101494.61
2018-09-02T13:05:17.470Z,101494.45
2018-09-02T13:07:47.698Z,101482.84
2018-09-02T13:10:17.507Z,101483.89
2018-09-02T13:13:13.248Z,101479.31
2018-09-02T13:15:45.594Z,101474.27
2018-09-02T13:18:15.906Z,101476.71
2018-09-02T13:20:55.738Z,101476.47
2018-09-02T13:23:25.612Z,101468.37
2018-09-02T13:25:55.218Z,101471.59
2018-09-02T13:28:27.279Z,101465.62
2018-09-02T13:30:57.940Z,101462.43
2018-09-02T13:33:28.120Z,101463.64
2018-09-02T13:35:57.895Z,101462.41
2018-09-02T13:38:27.627Z,101458.77
2018-09-02T13:40:57.202Z,101462.73
2018-09-02T13:43:26.867Z,101460.20
2018-09-02T13:45:56.530Z,101453.91
2018-09-02T13:48:26.156Z,101449.99
2018-09-02T13:50:56.295Z,101442.65
2018-09-02T13:53:26.002Z,101442.73
2018-09-02T13:55:56.240Z,101445.34
2018-09-02T13:58:26.275Z,101442.77
2018-09-02T14:00:55.952Z,101443.00
2018-09-02T14:03:25.501Z,101440.48
2018-09-02T14:05:55.442Z,101438.87
2018-09-02T14:08:25.210Z,101438.64
2018-09-02T14:10:55.134Z,101433.19
2018-09-02T14:13:25.187Z,101433.72
2018-09-02T14:15:55.307Z,101428.97
2018-09-02T14:18:24.894Z,101430.01
2018-09-02T14:20:54.566Z,101422.09
2018-09-02T14:23:24.758Z,101421.97
2018-09-02T14:25:54.887Z,101422.02
2018-09-02T14:28:24.636Z,101416.06
2018-09-02T14:30:54.705Z,101414.13
2018-09-02T14:33:24.733Z,101404.83
2018-09-02T14:35:55.311Z,101405.52
2018-09-02T14:38:24.778Z,101403.55
2018-09-02T14:40:55.111Z,101396.56
2018-09-02T14:43:25.008Z,101393.66
2018-09-02T14:45:55.087Z,101394.92
2018-09-02T14:48:24.790Z,101392.78
2018-09-02T14:50:54.841Z,101389.80
2018-09-02T14:53:24.886Z,101388.92
2018-09-02T14:55:55.957Z,101386.80
2018-09-02T14:58:26.018Z,101385.10
2018-09-02T15:00:57.639Z,101378.09
2018-09-02T15:03:27.230Z,101380.48
2018-09-02T15:05:56.683Z,101383.83
2018-09-02T15:08:28.430Z,101380.34
2018-09-02T15:10:58.493Z,101383.00
2018-09-02T15:13:28.251Z,101382.88
2018-09-02T15:15:59.822Z,101387.89
2018-09-02T15:18:29.661Z,101387.80
2018-09-02T15:21:02.076Z,101379.03
2018-09-02T15:23:32.680Z,101376.94
2018-09-02T15:26:03.250Z,101377.95
2018-09-02T15:28:37.951Z,101380.38
2018-09-02T15:31:08.582Z,101376.45
2018-09-02T15:33:38.966Z,101373.34
2018-09-02T15:36:09.337Z,101375.56
2018-09-02T15:38:39.980Z,101381.38
2018-09-02T15:41:10.539Z,101379.64
2018-09-02T15:43:41.476Z,101377.41
2018-09-02T15:46:11.870Z,101379.73
2018-09-02T15:48:41.605Z,101383.40
2018-09-02T15:51:11.885Z,101373.48
2018-09-02T15:53:41.839Z,101377.72
2018-09-02T15:56:11.280Z,101378.68
2018-09-02T15:58:41.205Z,101378.20
2018-09-02T16:01:11.430Z,101374.80
2018-09-02T16:03:41.510Z,101377.98
2018-09-02T16:06:11.381Z,101382.66
2018-09-02T16:08:41.184Z,101384.30
2018-09-02T16:11:11.515Z,101378.25
2018-09-02T16:13:41.049Z,101376.97
2018-09-02T16:16:12.109Z,101376.16
2018-09-02T16:18:41.853Z,101378.39
2018-09-02T16:21:12.011Z,101368.46
2018-09-02T16:23:41.859Z,101368.46
2018-09-02T16:26:12.441Z,101373.64
2018-09-02T16:28:42.781Z,101378.08
2018-09-02T16:31:13.288Z,101372.66
2018-09-02T16:33:43.961Z,101371.48
2018-09-02T16:36:13.948Z,101371.77
2018-09-02T16:38:44.249Z,101378.51
2018-09-02T16:41:14.510Z,101378.42
2018-09-02T16:43:44.429Z,101374.85
2018-09-02T16:46:14.244Z,101378.55
2018-09-02T16:48:43.875Z,101371.41
2018-09-02T16:51:13.353Z,101370.66
2018-09-02T16:53:42.814Z,101367.95
2018-09-02T16:56:12.387Z,101368.91
2018-09-02T16:58:41.984Z,101368.05
2018-09-02T17:01:14.979Z,101361.66
2018-09-02T17:03:48.043Z,101360.70
2018-09-02T17:06:18.884Z,101358.56
2018-09-02T17:08:51.017Z,101360.92
2018-09-02T17:11:20.795Z,101362.67
2018-09-02T17:13:54.641Z,101362.45
2018-09-02T17:16:24.863Z,101364.28
2018-09-02T17:18:58.667Z,101358.30
2018-09-02T17:21:29.112Z,101358.09
2018-09-02T17:23:59.521Z,101357.64
2018-09-02T17:26:29.109Z,101357.26
2018-09-02T17:29:00.755Z,101357.62
2018-09-02T17:31:30.577Z,101349.44
2018-09-02T17:34:03.973Z,101353.05
2018-09-02T17:36:36.244Z,101345.52
2018-09-02T17:39:09.821Z,101348.54
2018-09-02T17:41:40.386Z,101347.81
2018-09-02T17:44:11.585Z,101352.89
2018-09-02T17:46:41.941Z,101357.69
2018-09-02T17:49:12.357Z,101362.45
2018-09-02T17:51:42.095Z,101358.96
2018-09-02T17:54:12.500Z,101362.45
2018-09-02T17:56:42.755Z,101356.45
2018-09-02T17:59:12.606Z,101358.84
2018-09-02T18:01:42.942Z,101355.95
2018-09-02T18:04:13.205Z,101361.97
2018-09-02T18:06:43.049Z,101363.78
2018-09-02T18:09:13.131Z,101361.48
2018-09-02T18:11:43.600Z,101362.52
2018-09-02T18:14:13.562Z,101368.63
2018-09-02T18:16:43.964Z,101366.72
2018-09-02T18:19:14.309Z,101363.38
2018-09-02T18:21:44.583Z,101367.72
2018-09-02T18:24:14.808Z,101367.08
2018-09-02T18:26:44.871Z,101360.05
2018-09-02T18:29:15.069Z,101366.30
2018-09-02T18:31:45.460Z,101367.31
2018-09-02T18:34:15.575Z,101364.09
2018-09-02T18:36:45.805Z,101365.11
2018-09-02T18:39:15.628Z,101369.56
2018-09-02T18:41:45.960Z,101360.75
2018-09-02T18:44:16.237Z,101360.19
2018-09-02T18:46:46.684Z,101355.67
2018-09-02T18:49:17.071Z,101352.44
2018-09-02T18:51:47.034Z,101358.45
2018-09-02T18:54:16.532Z,101351.58
2018-09-02T18:56:45.936Z,101350.17
2018-09-02T18:59:15.474Z,101345.09
2018-09-02T19:01:44.958Z,101352.07
2018-09-02T19:04:14.372Z,101344.23
2018-09-02T19:06:44.393Z,101346.67
2018-09-02T19:09:14.160Z,101344.12
2018-09-02T19:11:43.859Z,101304.49
2018-09-02T19:14:13.303Z,101330.73
2018-09-02T19:16:42.752Z,101331.69
2018-09-02T19:19:12.727Z,101330.50
2018-09-02T19:21:42.199Z,101327.89
2018-09-02T19:24:12.100Z,101333.31
2018-09-02T19:26:41.471Z,101330.56
2018-09-02T19:29:10.988Z,101329.86
2018-09-02T19:31:40.995Z,101331.24
2018-09-02T19:34:11.657Z,101325.43
2018-09-02T19:36:41.164Z,101323.69
2018-09-02T19:39:11.247Z,101322.75
2018-09-02T19:41:42.385Z,101312.09
2018-09-02T19:44:12.622Z,101318.81
2018-09-02T19:46:42.617Z,101312.23
2018-09-02T19:49:12.655Z,101311.30
2018-09-02T19:51:42.693Z,101309.45
2018-09-02T19:54:12.673Z,101313.04
2018-09-02T19:56:42.492Z,101315.69
2018-09-02T19:59:12.298Z,101314.64
2018-09-02T20:01:41.730Z,101310.09
2018-09-02T20:04:11.282Z,101308.52
2018-09-02T20:06:41.244Z,101310.58
2018-09-02T20:09:12.774Z,101310.88
2018-09-02T20:11:42.580Z,101310.31
2018-09-02T20:14:13.354Z,101305.29
2018-09-02T20:16:43.219Z,101303.80
2018-09-02T20:19:13.200Z,101303.95
2018-09-02T20:21:43.625Z,101305.63
2018-09-02T20:24:13.629Z,101303.95
2018-09-02T20:26:43.660Z,101297.36
2018-09-02T20:29:13.232Z,101300.99
2018-09-02T20:31:42.804Z,101301.87
2018-09-02T20:34:12.766Z,101295.57
2018-09-02T20:36:42.802Z,101291.55
2018-09-02T20:39:12.552Z,101294.72
2018-09-02T20:41:42.125Z,101293.16
2018-09-02T20:44:11.787Z,101293.00
2018-09-02T20:46:41.308Z,101294.16
2018-09-02T20:49:10.848Z,101292.35
2018-09-02T20:51:40.893Z,101301.05
2018-09-02T20:54:10.781Z,101305.70
2018-09-02T20:56:40.651Z,101301.34
2018-09-02T20:59:10.590Z,101300.16
2018-09-02T21:01:41.073Z,101295.93
2018-09-02T21:04:11.075Z,101290.87
2018-09-02T21:06:40.575Z,101289.55
2018-09-02T21:09:13.551Z,101294.33
2018-09-02T21:11:43.487Z,101297.20
2018-09-02T21:14:12.980Z,101292.28
2018-09-02T21:16:42.584Z,101301.75
2018-09-02T21:19:12.491Z,101295.09
2018-09-02T21:21:42.415Z,101289.52
2018-09-02T21:24:12.184Z,101290.52
2018-09-02T21:26:41.623Z,101283.31
2018-09-02T21:29:11.108Z,101273.38
2018-09-02T21:31:40.530Z,101270.56
2018-09-02T21:34:10.357Z,101270.59
2018-09-02T21:36:40.133Z,101270.16
2018-09-02T21:39:09.939Z,101267.37
2018-09-02T21:41:39.754Z,101266.52
2018-09-02T21:44:09.546Z,101272.48
2018-09-02T21:46:39.007Z,101268.48
2018-09-02T21:49:08.458Z,101263.81
2018-09-02T21:51:38.253Z,101261.42
2018-09-02T21:54:07.658Z,101257.30
2018-09-02T21:56:37.739Z,101256.84
2018-09-02T21:59:07.101Z,101255.06
2018-09-02T22:01:36.502Z,101252.09
2018-09-02T22:04:05.923Z,101238.97
2018-09-02T22:06:35.802Z,101240.06
2018-09-02T22:09:14.504Z,101241.55
2018-09-02T22:11:44.672Z,101232.55
2018-09-02T22:14:14.710Z,101232.63
2018-09-02T22:16:45.460Z,101237.33
2018-09-02T22:19:14.835Z,101238.72
2018-09-02T22:21:44.660Z,101233.55
2018-09-02T22:24:14.111Z,101240.13
2018-09-02T22:26:43.880Z,101239.86
2018-09-02T22:29:13.383Z,101234.27
2018-09-02T22:31:43.131Z,101237.35
2018-09-02T22:34:12.613Z,101236.53
2018-09-02T22:36:42.382Z,101232.86
2018-09-02T22:39:12.194Z,101233.86
2018-09-02T22:41:42.099Z,101236.77
2018-09-02T22:44:11.998Z,101239.39
2018-09-02T22:46:41.424Z,101230.37
2018-09-02T22:49:10.782Z,101232.06
2018-09-02T22:51:40.194Z,101232.34
2018-09-02T22:54:09.549Z,101228.33
2018-09-02T22:56:38.976Z,101228.55
2018-09-02T22:59:08.731Z,101231.88
2018-09-02T23:01:38.496Z,101225.80
2018-09-02T23:04:08.239Z,101226.61
2018-09-02T23:06:37.657Z,101222.84
2018-09-02T23:09:08.720Z,101223.17
2018-09-02T23:11:38.163Z,101217.22
2018-09-02T23:14:07.942Z,101216.95
2018-09-02T23:16:37.405Z,101211.92
2018-09-02T23:19:07.144Z,101211.92
2018-09-02T23:21:36.941Z,101213.74
2018-09-02T23:24:06.721Z,101207.30
2018-09-02T23:26:36.444Z,101211.50
2018-09-02T23:29:05.929Z,101205.72
2018-09-02T23:31:35.599Z,101204.79
2018-09-02T23:34:05.550Z,101199.80
2018-09-02T23:36:34.944Z,101201.48
2018-09-02T23:39:06.534Z,101202.11
2018-09-02T23:41:36.302Z,101201.30
2018-09-02T23:44:06.070Z,101194.20
2018-09-02T23:46:35.939Z,101198.85
2018-09-02T23:49:05.583Z,101201.34
2018-09-02T23:51:35.389Z,101196.19
2018-09-02T23:54:05.257Z,101203.52
2018-09-02T23:56:35.070Z,101194.30
2018-09-02T23:59:04.990Z,101191.38
